createdAt,value
2018-08-04T00:00:34.034Z,5.60
2018-08-04T00:03:02.172Z,5.60
2018-08-04T00:05:30.300Z,7.10
2018-08-04T00:07:58.384Z,6.57
2018-08-04T00:10:26.590Z,8.83
2018-08-04T00:12:54.731Z,10.20
2018-08-04T00:15:22.956Z,12.10
2018-08-04T00:17:51.133Z,12.30
2018-08-04T00:20:19.231Z,11.73
2018-08-04T00:22:47.693Z,13.80
2018-08-04T00:25:15.805Z,12.67
2018-08-04T00:27:43.966Z,14.23
2018-08-04T00:30:13.337Z,14.70
2018-08-04T00:32:42.280Z,14.97
2018-08-04T00:35:11.180Z,12.77
2018-08-04T00:37:39.456Z,15.70
2018-08-04T00:40:09.844Z,14.23
2018-08-04T00:42:37.908Z,14.10
2018-08-04T00:45:06.191Z,14.60
2018-08-04T00:47:34.525Z,13.83
2018-08-04T00:50:03.025Z,15.30
2018-08-04T00:52:31.176Z,14.77
2018-08-04T00:54:59.331Z,14.93
2018-08-04T00:57:27.496Z,14.93
2018-08-04T00:59:55.909Z,13.73
2018-08-04T01:02:24.065Z,15.73
2018-08-04T01:04:52.226Z,14.50
2018-08-04T01:07:20.386Z,14.43
2018-08-04T01:09:48.439Z,14.40
2018-08-04T01:12:16.697Z,14.40
2018-08-04T01:14:44.778Z,15.40
2018-08-04T01:17:12.921Z,16.10
2018-08-04T01:19:41.272Z,15.20
2018-08-04T01:22:09.510Z,14.10
2018-08-04T01:24:37.644Z,15.20
2018-08-04T01:27:05.816Z,16.50
2018-08-04T01:29:33.951Z,15.77
2018-08-04T01:32:01.895Z,14.80
2018-08-04T01:34:30.056Z,14.47
2018-08-04T01:36:58.213Z,13.47
2018-08-04T01:39:27.330Z,14.47
2018-08-04T01:41:55.426Z,13.13
2018-08-04T01:44:23.502Z,11.60
2018-08-04T01:46:51.619Z,10.83
2018-08-04T01:49:19.808Z,10.07
2018-08-04T01:51:47.969Z,9.67
2018-08-04T01:54:16.162Z,11.37
2018-08-04T01:56:44.308Z,11.17
2018-08-04T01:59:12.600Z,11.40
2018-08-04T02:01:40.664Z,14.03
2018-08-04T02:04:08.869Z,11.97
2018-08-04T02:06:37.077Z,11.20
2018-08-04T02:09:06.869Z,12.30
2018-08-04T02:11:34.920Z,11.90
2018-08-04T02:14:03.121Z,12.43
2018-08-04T02:16:31.140Z,10.93
2018-08-04T02:18:59.318Z,12.30
2018-08-04T02:21:27.538Z,11.70
2018-08-04T02:23:55.679Z,12.37
2018-08-04T02:26:23.795Z,13.50
2018-08-04T02:28:51.928Z,14.50
2018-08-04T02:31:19.961Z,14.00
2018-08-04T02:33:48.069Z,14.37
2018-08-04T02:36:16.225Z,15.90
2018-08-04T02:38:44.356Z,14.27
2018-08-04T02:41:12.472Z,13.00
2018-08-04T02:43:40.615Z,16.17
2018-08-04T02:46:08.703Z,14.13
2018-08-04T02:48:36.836Z,15.77
2018-08-04T02:51:05.155Z,14.67
2018-08-04T02:53:33.257Z,14.60
2018-08-04T02:56:01.405Z,14.20
2018-08-04T02:58:29.440Z,13.80
2018-08-04T03:00:57.631Z,12.53
2018-08-04T03:03:25.779Z,15.00
2018-08-04T03:05:54.200Z,13.70
2018-08-04T03:08:22.311Z,16.30
2018-08-04T03:10:50.472Z,13.77
2018-08-04T03:13:18.665Z,13.23
2018-08-04T03:15:46.833Z,15.10
2018-08-04T03:18:14.962Z,12.80
2018-08-04T03:20:43.016Z,15.07
2018-08-04T03:23:11.112Z,12.97
2018-08-04T03:25:39.365Z,14.33
2018-08-04T03:28:07.470Z,14.40
2018-08-04T03:30:35.524Z,14.20
2018-08-04T03:33:03.607Z,15.47
2018-08-04T03:35:31.707Z,13.83
2018-08-04T03:37:59.819Z,14.50
2018-08-04T03:40:28.172Z,13.23
2018-08-04T03:42:56.306Z,14.70
2018-08-04T03:45:24.364Z,14.07
2018-08-04T03:47:52.482Z,16.00
2018-08-04T03:50:20.629Z,13.30
2018-08-04T03:52:48.734Z,14.07
2018-08-04T03:55:16.853Z,14.07
2018-08-04T03:57:44.976Z,14.23
2018-08-04T04:00:13.096Z,13.77
2018-08-04T04:02:41.186Z,14.90
2018-08-04T04:05:09.270Z,14.30
2018-08-04T04:07:37.646Z,14.07
2018-08-04T04:10:05.797Z,14.53
2018-08-04T04:12:33.895Z,15.80
2018-08-04T04:15:02.023Z,15.27
2018-08-04T04:17:34.404Z,13.70
2018-08-04T04:20:02.531Z,15.23
2018-08-04T04:22:30.708Z,14.67
2018-08-04T04:24:58.861Z,14.93
2018-08-04T04:27:26.780Z,17.20
2018-08-04T04:29:55.028Z,15.47
2018-08-04T04:32:23.206Z,14.60
2018-08-04T04:34:51.307Z,15.80
2018-08-04T04:37:19.461Z,16.03
2018-08-04T04:39:47.588Z,15.33
2018-08-04T04:42:15.652Z,16.93
2018-08-04T04:44:43.788Z,16.13
2018-08-04T04:47:11.908Z,18.03
2018-08-04T04:49:39.975Z,14.10
2018-08-04T04:52:07.912Z,15.03
2018-08-04T04:54:36.341Z,13.87
2018-08-04T04:57:04.827Z,15.17
2018-08-04T04:59:32.921Z,16.27
2018-08-04T05:02:01.190Z,15.00
2018-08-04T05:04:35.635Z,15.20
2018-08-04T05:07:03.788Z,15.87
2018-08-04T05:09:31.936Z,16.03
2018-08-04T05:12:00.082Z,15.07
2018-08-04T05:14:28.229Z,15.47
2018-08-04T05:16:56.357Z,15.63
2018-08-04T05:19:24.432Z,15.50
2018-08-04T05:21:52.626Z,15.00
2018-08-04T05:25:24.292Z,15.10
2018-08-04T05:27:52.351Z,16.30
2018-08-04T05:30:20.359Z,14.70
2018-08-04T05:32:48.612Z,14.30
2018-08-04T05:35:16.761Z,14.23
2018-08-04T05:37:44.806Z,15.13
2018-08-04T05:40:12.931Z,15.13
2018-08-04T05:42:41.012Z,17.93
2018-08-04T05:45:09.704Z,16.80
2018-08-04T05:47:38.109Z,16.07
2018-08-04T05:50:06.626Z,15.20
2018-08-04T05:52:34.792Z,20.40
2018-08-04T05:55:02.944Z,14.67
2018-08-04T05:57:30.966Z,14.40
2018-08-04T05:59:59.071Z,13.80
2018-08-04T06:02:27.257Z,13.57
2018-08-04T06:04:55.587Z,14.07
2018-08-04T06:07:23.640Z,12.47
2018-08-04T06:09:51.791Z,12.93
2018-08-04T06:12:19.968Z,14.33
2018-08-04T06:14:48.067Z,16.10
2018-08-04T06:17:16.280Z,14.80
2018-08-04T06:19:44.503Z,14.67
2018-08-04T06:22:12.669Z,16.30
2018-08-04T06:24:40.831Z,14.57
2018-08-04T06:27:08.987Z,15.70
2018-08-04T06:29:37.147Z,16.80
2018-08-04T06:32:05.276Z,15.90
2018-08-04T06:34:33.367Z,14.50
2018-08-04T06:37:01.438Z,15.47
2018-08-04T06:39:29.567Z,16.67
2018-08-04T06:41:57.679Z,17.67
2018-08-04T06:44:26.031Z,14.40
2018-08-04T06:46:54.182Z,13.83
2018-08-04T06:49:22.229Z,14.20
2018-08-04T06:51:50.330Z,17.47
2018-08-04T06:54:18.491Z,15.40
2018-08-04T06:56:46.568Z,15.70
2018-08-04T06:59:14.704Z,14.87
2018-08-04T07:01:43.389Z,14.57
2018-08-04T07:04:11.500Z,16.13
2018-08-04T07:06:39.604Z,14.87
2018-08-04T07:09:08.613Z,14.47
2018-08-04T07:11:36.702Z,14.50
2018-08-04T07:14:05.774Z,13.00
2018-08-04T07:16:33.815Z,13.40
2018-08-04T07:19:01.933Z,12.33
2018-08-04T07:21:30.015Z,14.13
2018-08-04T07:23:58.164Z,13.80
2018-08-04T07:26:26.354Z,14.10
2018-08-04T07:28:54.520Z,14.17
2018-08-04T07:31:22.430Z,14.00
2018-08-04T07:33:50.532Z,14.47
2018-08-04T07:36:18.665Z,12.07
2018-08-04T07:38:46.788Z,12.27
2018-08-04T07:41:14.850Z,13.50
2018-08-04T07:43:42.985Z,11.70
2018-08-04T07:46:11.186Z,13.03
2018-08-04T07:48:39.377Z,11.80
2018-08-04T07:51:07.607Z,12.17
2018-08-04T07:53:35.752Z,11.60
2018-08-04T07:56:03.902Z,12.73
2018-08-04T07:58:32.105Z,13.20
2018-08-04T08:01:00.305Z,10.97
2018-08-04T08:03:28.453Z,12.33
2018-08-04T08:05:56.800Z,11.50
2018-08-04T08:08:24.897Z,10.33
2018-08-04T08:10:53.129Z,11.47
2018-08-04T08:13:21.248Z,10.90
2018-08-04T08:15:49.446Z,9.70
2018-08-04T08:18:17.530Z,11.60
2018-08-04T08:20:45.638Z,11.53
2018-08-04T08:23:13.755Z,11.03
2018-08-04T08:25:52.193Z,10.60
2018-08-04T08:28:20.373Z,10.20
2018-08-04T08:30:48.438Z,12.60
2018-08-04T08:33:16.560Z,11.63
2018-08-04T08:35:44.724Z,11.37
2018-08-04T08:38:13.928Z,10.83
2018-08-04T08:40:42.017Z,11.73
2018-08-04T08:43:10.032Z,18.23
2018-08-04T08:45:38.218Z,10.80
2018-08-04T08:48:06.312Z,10.80
2018-08-04T08:50:34.384Z,9.87
2018-08-04T08:53:02.554Z,9.80
2018-08-04T08:55:31.845Z,10.67
2018-08-04T08:57:59.857Z,10.90
2018-08-04T09:00:28.012Z,10.90
2018-08-04T09:02:56.121Z,10.20
2018-08-04T09:05:24.267Z,10.10
2018-08-04T09:07:52.443Z,10.97
2018-08-04T09:10:20.681Z,10.87
2018-08-04T09:12:48.816Z,9.77
2018-08-04T09:15:16.931Z,9.83
2018-08-04T09:17:45.009Z,9.03
2018-08-04T09:20:13.118Z,8.23
2018-08-04T09:22:41.312Z,8.67
2018-08-04T09:25:09.723Z,9.33
2018-08-04T09:27:38.748Z,8.80
2018-08-04T09:30:09.116Z,8.90
2018-08-04T09:32:37.386Z,8.70
2018-08-04T09:35:05.655Z,9.33
2018-08-04T09:37:33.766Z,7.60
2018-08-04T09:40:01.845Z,8.37
2018-08-04T09:42:29.924Z,8.13
2018-08-04T09:44:58.168Z,8.20
2018-08-04T09:47:26.215Z,8.23
2018-08-04T09:49:54.419Z,8.33
2018-08-04T09:52:22.560Z,8.20
2018-08-04T09:54:50.787Z,7.30
2018-08-04T09:57:18.880Z,8.20
2018-08-04T09:59:46.967Z,8.00
2018-08-04T10:02:19.462Z,7.10
2018-08-04T10:04:47.677Z,7.10
2018-08-04T10:07:15.839Z,7.30
2018-08-04T10:10:01.418Z,7.63
2018-08-04T10:12:29.636Z,13.40
2018-08-04T10:14:57.800Z,9.30
2018-08-04T10:17:25.847Z,7.47
2018-08-04T10:19:53.905Z,7.27
2018-08-04T10:22:22.043Z,7.10
2018-08-04T10:24:50.212Z,8.07
2018-08-04T10:27:18.327Z,7.93
2018-08-04T10:29:46.520Z,8.13
2018-08-04T10:32:14.785Z,7.47
2018-08-04T10:34:43.339Z,7.43
2018-08-04T10:37:11.573Z,6.90
2018-08-04T10:39:39.630Z,7.77
2018-08-04T10:42:07.769Z,7.70
2018-08-04T10:44:35.998Z,6.60
2018-08-04T10:47:03.943Z,9.23
2018-08-04T10:49:32.034Z,8.27
2018-08-04T10:52:00.123Z,7.50
2018-08-04T10:54:28.011Z,7.80
2018-08-04T10:56:56.128Z,7.20
2018-08-04T10:59:24.230Z,7.50
2018-08-04T11:01:52.324Z,7.27
2018-08-04T11:04:20.368Z,8.10
2018-08-04T11:06:48.500Z,7.17
2018-08-04T11:09:16.643Z,7.27
2018-08-04T11:11:44.792Z,8.13
2018-08-04T11:14:12.718Z,7.23
2018-08-04T11:16:40.848Z,8.03
2018-08-04T11:19:09.041Z,7.03
2018-08-04T11:21:37.209Z,7.07
2018-08-04T11:24:05.502Z,6.60
2018-08-04T11:26:33.656Z,8.33
2018-08-04T11:29:01.875Z,7.43
2018-08-04T11:31:30.033Z,8.17
2018-08-04T11:33:58.200Z,7.63
2018-08-04T11:36:26.319Z,6.80
2018-08-04T11:38:54.457Z,7.83
2018-08-04T11:41:25.897Z,8.07
2018-08-04T11:43:55.956Z,7.73
2018-08-04T11:46:24.158Z,7.80
2018-08-04T11:48:52.290Z,7.77
2018-08-04T11:51:20.396Z,7.20
2018-08-04T11:53:48.493Z,6.67
2018-08-04T11:56:18.264Z,7.00
2018-08-04T11:58:46.381Z,7.30
2018-08-04T12:01:14.579Z,6.20
2018-08-04T12:03:42.708Z,5.83
2018-08-04T12:06:10.718Z,6.00
2018-08-04T12:08:38.873Z,5.63
2018-08-04T12:11:07.093Z,4.60
2018-08-04T12:13:35.175Z,5.70
2018-08-04T12:16:03.280Z,5.37
2018-08-04T12:18:31.346Z,5.50
2018-08-04T12:20:59.440Z,4.70
2018-08-04T12:23:27.604Z,4.73
2018-08-04T12:25:55.739Z,5.73
2018-08-04T12:28:23.856Z,5.07
2018-08-04T12:30:51.984Z,4.80
2018-08-04T12:33:20.329Z,4.62
2018-08-04T12:35:48.464Z,5.55
2018-08-04T12:38:16.547Z,4.83
2018-08-04T12:40:44.686Z,4.80
2018-08-04T12:43:12.780Z,5.20
2018-08-04T12:45:40.889Z,4.80
2018-08-04T12:48:09.115Z,3.70
2018-08-04T12:50:37.179Z,3.87
2018-08-04T12:53:05.538Z,4.37
2018-08-04T12:55:33.697Z,4.65
2018-08-04T12:58:01.865Z,4.40
2018-08-04T13:00:30.073Z,4.62
2018-08-04T13:02:58.228Z,4.60
2018-08-04T13:05:26.396Z,4.20
2018-08-04T13:07:54.553Z,4.05
2018-08-04T13:10:22.740Z,4.28
2018-08-04T13:12:51.003Z,3.95
2018-08-04T13:15:19.194Z,3.83
2018-08-04T13:17:47.339Z,3.55
2018-08-04T13:20:15.454Z,4.42
2018-08-04T13:22:43.584Z,4.08
2018-08-04T13:25:11.650Z,4.15
2018-08-04T13:27:39.723Z,4.05
2018-08-04T13:30:07.804Z,4.58
2018-08-04T13:32:36.090Z,3.92
2018-08-04T13:35:04.278Z,4.55
2018-08-04T13:37:32.382Z,4.22
2018-08-04T13:40:00.516Z,4.37
2018-08-04T13:42:28.560Z,4.50
2018-08-04T13:44:56.517Z,4.12
2018-08-04T13:47:24.563Z,4.55
2018-08-04T13:49:52.652Z,4.00
2018-08-04T13:52:20.800Z,4.95
2018-08-04T13:54:52.991Z,5.03
2018-08-04T13:57:22.352Z,4.87
2018-08-04T13:59:50.485Z,6.07
2018-08-04T14:02:18.582Z,5.27
2018-08-04T14:04:46.741Z,5.93
2018-08-04T14:07:14.767Z,5.53
2018-08-04T14:09:42.838Z,5.80
2018-08-04T14:12:10.987Z,6.37
2018-08-04T14:14:39.184Z,6.93
2018-08-04T14:17:07.547Z,5.97
2018-08-04T14:19:35.717Z,6.10
2018-08-04T14:22:03.962Z,6.77
2018-08-04T14:24:32.085Z,6.97
2018-08-04T14:27:00.313Z,6.40
2018-08-04T14:29:28.434Z,6.40
2018-08-04T14:31:56.527Z,5.90
2018-08-04T14:34:24.676Z,7.00
2018-08-04T14:36:52.896Z,6.70
2018-08-04T14:39:21.201Z,6.33
2018-08-04T14:41:57.844Z,7.77
2018-08-04T14:44:36.853Z,7.60
2018-08-04T14:47:05.027Z,7.30
2018-08-04T14:49:33.174Z,6.70
2018-08-04T14:52:01.464Z,7.40
2018-08-04T14:54:29.584Z,7.23
2018-08-04T14:57:05.092Z,7.60
2018-08-04T14:59:35.708Z,7.27
2018-08-04T15:02:03.951Z,7.30
2018-08-04T15:04:32.174Z,7.43
2018-08-04T15:07:00.264Z,7.57
2018-08-04T15:09:28.432Z,7.30
2018-08-04T15:11:56.574Z,8.63
2018-08-04T15:14:24.675Z,7.67
2018-08-04T15:16:52.828Z,7.50
2018-08-04T15:19:21.018Z,8.40
2018-08-04T15:21:49.068Z,12.83
2018-08-04T15:24:17.228Z,10.57
2018-08-04T15:26:45.277Z,8.30
2018-08-04T15:29:13.332Z,7.90
2018-08-04T15:31:41.235Z,8.00
2018-08-04T15:34:09.331Z,7.77
2018-08-04T15:36:37.458Z,7.43
2018-08-04T15:39:07.886Z,6.43
2018-08-04T15:41:35.980Z,7.70
2018-08-04T15:44:04.057Z,7.57
2018-08-04T15:46:32.543Z,7.03
2018-08-04T15:49:00.639Z,6.97
2018-08-04T15:51:28.776Z,6.73
2018-08-04T15:53:56.969Z,5.80
2018-08-04T15:56:25.133Z,6.60
2018-08-04T15:58:53.340Z,6.70
2018-08-04T16:01:21.484Z,9.00
2018-08-04T16:03:49.530Z,7.80
2018-08-04T16:06:17.728Z,7.70
2018-08-04T16:08:45.856Z,6.93
2018-08-04T16:11:13.969Z,7.63
2018-08-04T16:13:42.179Z,6.00
2018-08-04T16:16:10.288Z,7.13
2018-08-04T16:18:38.344Z,6.30
2018-08-04T16:21:06.622Z,6.90
2018-08-04T16:23:34.675Z,6.00
2018-08-04T16:26:02.830Z,6.33
2018-08-04T16:28:31.009Z,5.73
2018-08-04T16:30:59.123Z,5.57
2018-08-04T16:33:27.547Z,6.33
2018-08-04T16:35:55.714Z,5.80
2018-08-04T16:38:23.997Z,6.73
2018-08-04T16:40:52.172Z,6.00
2018-08-04T16:43:20.353Z,6.30
2018-08-04T16:45:48.484Z,7.90
2018-08-04T16:48:16.385Z,7.17
2018-08-04T16:50:44.530Z,6.63
2018-08-04T16:53:12.661Z,6.53
2018-08-04T16:55:40.736Z,6.90
2018-08-04T16:58:08.859Z,7.23
2018-08-04T17:00:36.915Z,6.40
2018-08-04T17:03:05.108Z,7.60
2018-08-04T17:05:33.252Z,6.50
2018-08-04T17:08:01.375Z,7.40
2018-08-04T17:10:29.507Z,6.90
2018-08-04T17:12:57.539Z,6.73
2018-08-04T17:15:25.672Z,7.37
2018-08-04T17:17:53.782Z,7.23
2018-08-04T17:20:22.503Z,6.90
2018-08-04T17:22:50.709Z,7.20
2018-08-04T17:25:18.822Z,8.60
2018-08-04T17:27:46.977Z,7.93
2018-08-04T17:30:15.104Z,8.37
2018-08-04T17:32:43.569Z,8.10
2018-08-04T17:35:12.051Z,8.27
2018-08-04T17:37:40.528Z,9.33
2018-08-04T17:40:09.472Z,9.87
2018-08-04T17:42:38.253Z,8.60
2018-08-04T17:45:06.932Z,9.50
2018-08-04T17:47:36.174Z,9.43
2018-08-04T17:50:05.346Z,8.57
2018-08-04T17:52:34.663Z,8.93
2018-08-04T17:55:03.951Z,9.07
2018-08-04T17:57:32.104Z,8.70
2018-08-04T18:00:00.299Z,8.70
2018-08-04T18:02:28.525Z,8.80
2018-08-04T18:04:56.518Z,8.40
2018-08-04T18:07:24.616Z,9.37
2018-08-04T18:09:53.052Z,9.30
2018-08-04T18:12:21.193Z,9.60
2018-08-04T18:14:49.380Z,9.00
2018-08-04T18:17:17.498Z,9.57
2018-08-04T18:19:45.590Z,8.60
2018-08-04T18:22:13.789Z,9.17
2018-08-04T18:24:41.879Z,9.40
2018-08-04T18:27:09.973Z,9.73
2018-08-04T18:29:38.071Z,9.27
2018-08-04T18:32:06.535Z,9.77
2018-08-04T18:34:34.661Z,8.93
2018-08-04T18:37:02.826Z,11.03
2018-08-04T18:39:31.707Z,9.57
2018-08-04T18:41:59.880Z,11.57
2018-08-04T18:44:28.121Z,10.77
2018-08-04T18:46:56.225Z,11.90
2018-08-04T18:49:24.632Z,10.23
2018-08-04T18:51:52.789Z,10.50
2018-08-04T18:54:21.289Z,10.20
2018-08-04T18:56:49.478Z,10.50
2018-08-04T18:59:17.561Z,10.37
2018-08-04T19:01:45.697Z,10.07
2018-08-04T19:04:14.036Z,11.30
2018-08-04T19:06:42.025Z,11.20
2018-08-04T19:09:13.135Z,10.53
2018-08-04T19:11:41.364Z,12.70
2018-08-04T19:14:10.180Z,10.93
2018-08-04T19:16:38.523Z,11.70
2018-08-04T19:19:06.807Z,12.20
2018-08-04T19:21:35.108Z,12.50
2018-08-04T19:24:03.245Z,12.00
2018-08-04T19:26:31.363Z,11.73
2018-08-04T19:28:59.500Z,12.73
2018-08-04T19:31:27.816Z,12.27
2018-08-04T19:33:56.359Z,12.70
2018-08-04T19:36:24.898Z,13.40
2018-08-04T19:38:53.200Z,11.73
2018-08-04T19:41:21.590Z,13.20
2018-08-04T19:43:50.225Z,12.70
2018-08-04T19:46:18.229Z,11.60
2018-08-04T19:48:46.186Z,12.00
2018-08-04T19:51:14.334Z,12.50
2018-08-04T19:53:42.489Z,14.80
2018-08-04T19:56:10.514Z,13.90
2018-08-04T19:58:38.666Z,13.17
2018-08-04T20:01:06.833Z,12.23
2018-08-04T20:03:35.164Z,14.50
2018-08-04T20:06:03.851Z,13.80
2018-08-04T20:08:32.031Z,15.50
2018-08-04T20:11:00.474Z,13.87
2018-08-04T20:13:28.560Z,13.37
2018-08-04T20:15:56.788Z,13.97
2018-08-04T20:18:24.891Z,14.20
2018-08-04T20:20:52.948Z,14.60
2018-08-04T20:23:21.052Z,15.20
2018-08-04T20:25:49.117Z,14.90
2018-08-04T20:28:17.235Z,15.27
2018-08-04T20:30:45.399Z,14.40
2018-08-04T20:33:13.621Z,14.17
2018-08-04T20:35:41.748Z,14.30
2018-08-04T20:38:09.911Z,13.27
2018-08-04T20:40:38.282Z,14.60
2018-08-04T20:43:06.651Z,13.80
2018-08-04T20:45:34.863Z,17.67
2018-08-04T20:48:03.350Z,15.70
2018-08-04T20:50:31.629Z,16.10
2018-08-04T20:52:59.841Z,14.73
2018-08-04T20:55:27.822Z,15.27
2018-08-04T20:57:55.940Z,16.77
2018-08-04T21:00:24.053Z,15.33
2018-08-04T21:02:52.148Z,16.63
2018-08-04T21:05:22.879Z,16.67
2018-08-04T21:07:51.530Z,16.97
2018-08-04T21:10:20.233Z,15.97
2018-08-04T21:12:51.908Z,15.77
2018-08-04T21:15:20.023Z,15.93
2018-08-04T21:17:51.848Z,16.73
2018-08-04T21:20:19.948Z,16.40
2018-08-04T21:22:49.211Z,17.83
2018-08-04T21:25:17.299Z,17.00
2018-08-04T21:27:45.464Z,16.87
2018-08-04T21:30:14.120Z,16.10
2018-08-04T21:32:42.625Z,16.90
2018-08-04T21:35:14.661Z,17.30
2018-08-04T21:37:42.767Z,18.87
2018-08-04T21:40:11.457Z,18.57
2018-08-04T21:42:42.223Z,19.77
2018-08-04T21:45:10.289Z,18.70
2018-08-04T21:47:38.377Z,19.60
2018-08-04T21:50:06.403Z,20.27
2018-08-04T21:52:34.894Z,20.60
2018-08-04T21:55:02.993Z,19.10
2018-08-04T21:57:31.056Z,19.40
2018-08-04T21:59:59.247Z,18.27
2018-08-04T22:02:27.482Z,19.73
2018-08-04T22:04:55.507Z,18.47
2018-08-04T22:07:45.435Z,17.60
2018-08-04T22:10:14.103Z,16.33
2018-08-04T22:12:44.127Z,16.07
2018-08-04T22:15:14.982Z,14.80
2018-08-04T22:17:43.880Z,16.80
2018-08-04T22:20:13.252Z,16.43
2018-08-04T22:22:42.647Z,16.43
2018-08-04T22:25:13.040Z,16.23
2018-08-04T22:27:41.214Z,15.43
2018-08-04T22:30:10.929Z,14.40
2018-08-04T22:32:39.458Z,15.70
2018-08-04T22:35:08.858Z,15.83
2018-08-04T22:37:37.533Z,16.10
2018-08-04T22:40:06.120Z,18.37
2018-08-04T22:42:34.645Z,17.73
2018-08-04T22:45:15.070Z,17.00
2018-08-04T22:47:43.248Z,15.90
2018-08-04T22:50:14.439Z,18.10
2018-08-04T22:52:42.563Z,17.33
2018-08-04T22:55:10.595Z,16.40
2018-08-04T22:57:38.751Z,17.40
2018-08-04T23:00:07.820Z,17.30
2018-08-04T23:02:35.883Z,17.00
2018-08-04T23:05:03.967Z,17.20
2018-08-04T23:07:34.228Z,18.57
2018-08-04T23:10:02.965Z,19.00
2018-08-04T23:12:31.906Z,17.47
2018-08-04T23:15:00.228Z,16.83
2018-08-04T23:17:29.317Z,17.10
2018-08-04T23:19:57.976Z,16.60
2018-08-04T23:22:29.183Z,18.10
2018-08-04T23:24:57.323Z,19.10
2018-08-04T23:27:25.448Z,16.80
2018-08-04T23:29:53.589Z,18.77
2018-08-04T23:32:21.656Z,17.10
2018-08-04T23:34:49.711Z,17.10
2018-08-04T23:37:18.758Z,17.37
2018-08-04T23:39:47.003Z,16.63
2018-08-04T23:42:16.624Z,18.07
2018-08-04T23:44:44.659Z,18.03
2018-08-04T23:47:14.557Z,18.30
2018-08-04T23:49:43.372Z,16.60
2018-08-04T23:52:12.219Z,15.17
2018-08-04T23:54:41.652Z,17.60
2018-08-04T23:57:10.929Z,17.03
2018-08-04T23:59:39.054Z,15.90
